Auburn, West Virginia
Current Conditions -  °F | °C
As of 2:15 PM on Friday 28 Nov 2014 (Local Time) from KW22 Reporting Station
Overcast Overcast  
Wind Chill: 20°   Ceiling: 3100
Heat Index: 27°   Visibility: 10mi
Dew Point: 16°   Wind: 6mph
Humidity: 64%   Direction: 210°SSW
Pressure: 30.26"   Gusts: NA
Location:  39.1°N, 80.86°W
Report Text: KW22 281915Z AUTO 21005KT 10SM OVC031 M03/M09 A3026 RMK AO2
Loading
Personal Weather Stations






























Interactive Weather Map New forecast layout! Learn more

10-Day Weather Forecast

Advertisements
Track Severe Weather on mobile